Time;durP1;ratioP1;P1;durP2;ratioP2;P2;SDS_P1;SDS_P2;PMS_P1;PMS_P2;Temp;Humidity;BMP_temperature;BMP_pressure;BME280_temperature;BME280_humidity;BME280_pressure;Samples;Min_cycle;Max_cycle;Signal;HPM_P1;HPM_P2
2022/05/01 00:01:09;;;;;;;22.10;9.52;;;;;;;6.25;86.16;100245.41;5009175;28;20058;-51
2022/05/01 00:03:54;;;;;;;21.05;10.38;;;;;;;6.07;89.64;100248.00;5004689;28;20054;-50
2022/05/01 00:06:39;;;;;;;23.23;10.73;;;;;;;6.12;87.90;100248.91;5000855;28;20065;-50
2022/05/01 00:09:24;;;;;;;17.30;8.95;;;;;;;6.10;86.80;100235.00;4995761;28;20446;-51
2022/05/01 00:12:08;;;;;;;15.82;8.82;;;;;;;6.04;87.41;100246.28;5007531;28;20064;-50
2022/05/01 00:14:53;;;;;;;19.45;9.48;;;;;;;6.03;87.53;100244.56;5008770;28;20714;-50
2022/05/01 00:17:37;;;;;;;24.70;12.02;;;;;;;5.99;87.88;100244.56;5008573;28;20054;-50
2022/05/01 00:20:22;;;;;;;24.17;11.73;;;;;;;5.93;87.72;100237.63;5005006;28;20054;-50
2022/05/01 00:23:06;;;;;;;24.60;13.40;;;;;;;5.93;87.23;100245.41;5008221;28;20058;-51
2022/05/01 00:25:51;;;;;;;26.77;14.57;;;;;;;5.88;87.29;100244.50;5008143;28;20053;-50
2022/05/01 00:28:36;;;;;;;27.23;15.85;;;;;;;5.83;88.04;100241.03;5008475;28;20068;-50
2022/05/01 00:31:21;;;;;;;27.67;16.30;;;;;;;5.78;87.98;100245.34;5007966;28;20054;-50
2022/05/01 00:37:08;;;;;;;28.45;12.60;;;;;;;5.65;90.07;100238.41;5007076;28;20037;-50
2022/05/01 00:39:52;;;;;;;24.67;12.15;;;;;;;5.62;89.17;100236.66;5006718;28;20046;-50
2022/05/01 00:42:37;;;;;;;21.92;10.57;;;;;;;5.45;90.79;100208.06;5007967;28;20053;-50
2022/05/01 00:45:21;;;;;;;19.13;10.25;;;;;;;5.55;90.89;100229.72;5008914;28;20054;-50
2022/05/01 00:48:06;;;;;;;18.52;9.48;;;;;;;5.52;90.61;100240.97;5006376;28;20050;-50
2022/05/01 00:50:52;;;;;;;19.25;9.50;;;;;;;5.39;94.18;100224.50;5008427;28;20072;-50
2022/05/01 00:53:37;;;;;;;19.65;8.50;;;;;;;5.37;94.47;100238.34;5008483;28;20412;-50
2022/05/01 00:56:22;;;;;;;17.77;9.23;;;;;;;5.32;95.84;100238.31;4999720;28;20057;-50
2022/05/01 00:59:07;;;;;;;19.48;9.57;;;;;;;5.32;96.42;100235.72;5003921;28;20491;-50
2022/05/01 01:01:52;;;;;;;19.80;8.63;;;;;;;5.33;94.69;100229.69;5007170;28;20045;-50
2022/05/01 01:04:36;;;;;;;35.58;12.63;;;;;;;5.12;99.94;100230.47;5008634;28;20384;-50
2022/05/01 01:07:20;;;;;;;35.88;13.68;;;;;;;5.16;99.06;100231.34;4997104;28;20065;-50
2022/05/01 01:10:06;;;;;;;31.58;13.95;;;;;;;5.07;100.00;100227.00;5008606;28;20050;-50
2022/05/01 01:12:56;;;;;;;39.58;15.75;;;;;;;5.12;98.55;100233.06;4999155;28;20045;-50
2022/05/01 01:15:41;;;;;;;41.85;14.95;;;;;;;4.95;100.00;100232.13;5003873;28;20085;-50
2022/05/01 01:18:26;;;;;;;42.72;18.10;;;;;;;4.90;100.00;100231.25;4995647;28;20054;-50
2022/05/01 01:21:11;;;;;;;58.47;17.83;;;;;;;4.86;100.00;100217.38;5007555;28;20314;-50
2022/05/01 01:23:57;;;;;;;47.83;16.60;;;;;;;4.91;100.00;100220.88;5004938;28;20095;-50
2022/05/01 01:26:42;;;;;;;54.13;18.30;;;;;;;4.91;100.00;100230.41;5001694;28;20046;-51
2022/05/01 01:32:31;;;;;;;39.65;15.10;;;;;;;4.95;100.00;100231.28;4997458;28;21099;-50
2022/05/01 01:35:17;;;;;;;43.63;15.60;;;;;;;5.00;100.00;100229.53;4993266;28;20046;-50
2022/05/01 01:38:02;;;;;;;35.10;14.07;;;;;;;4.94;100.00;100230.41;4994703;28;20376;-50
2022/05/01 01:40:51;;;;;;;36.72;14.70;;;;;;;4.92;100.00;100222.59;4992666;28;20058;-50
2022/05/01 01:43:36;;;;;;;54.55;19.83;;;;;;;4.84;100.00;100229.50;5002094;28;20058;-50
2022/05/01 01:46:21;;;;;;;63.17;21.33;;;;;;;4.77;100.00;100216.47;4990753;28;20082;-50
2022/05/01 01:49:10;;;;;;;50.13;19.13;;;;;;;4.66;100.00;100226.81;4990665;28;20553;-50
2022/05/01 01:51:55;;;;;;;52.78;19.42;;;;;;;4.70;100.00;100218.16;4990583;28;20050;-50
2022/05/01 01:54:39;;;;;;;51.50;19.55;;;;;;;4.73;100.00;100223.38;4998049;28;20045;-50
2022/05/01 01:57:23;;;;;;;51.13;18.98;;;;;;;4.78;100.00;100218.22;4990480;28;20058;-51
2022/05/01 02:00:09;;;;;;;42.67;18.30;;;;;;;4.68;100.00;100210.38;4991546;28;20065;-50
2022/05/01 02:03:03;;;;;;;40.05;16.88;;;;;;;4.63;100.00;100216.41;4989283;28;20500;-50
2022/05/01 02:05:49;;;;;;;38.05;15.90;;;;;;;4.59;100.00;100206.88;4989225;28;20123;-50
2022/05/01 02:08:36;;;;;;;25.88;12.20;;;;;;;4.62;100.00;100212.94;4993727;28;20038;-50
2022/05/01 02:11:21;;;;;;;33.75;13.80;;;;;;;4.65;100.00;100202.59;4989523;28;20399;-50
2022/05/01 02:14:05;;;;;;;24.45;12.25;;;;;;;4.74;100.00;100208.66;4992387;28;20039;-50
2022/05/01 02:16:50;;;;;;;27.60;12.55;;;;;;;4.67;100.00;100205.16;4989734;28;20713;-50
2022/05/01 02:19:35;;;;;;;29.52;11.32;;;;;;;4.64;100.00;100208.63;4990994;28;20116;-50
2022/05/01 02:22:21;;;;;;;27.55;11.70;;;;;;;4.54;100.00;100209.44;4988890;28;20076;-50
2022/05/01 02:25:12;;;;;;;22.92;10.50;;;;;;;4.55;100.00;100197.31;4992681;28;20042;-50
2022/05/01 02:27:57;;;;;;;21.50;9.82;;;;;;;4.47;100.00;100197.28;4997966;28;20057;-50
2022/05/01 02:30:42;;;;;;;19.92;11.10;;;;;;;4.34;100.00;100196.34;4993420;28;20046;-50
2022/05/01 02:33:26;;;;;;;21.65;12.23;;;;;;;4.40;100.00;100200.72;4989808;28;20054;-50
2022/05/01 02:36:12;;;;;;;19.73;10.60;;;;;;;4.37;100.00;100204.13;4989902;28;20046;-51
2022/05/01 02:38:56;;;;;;;23.00;11.07;;;;;;;4.49;100.00;100205.09;4989040;28;20703;-50
2022/05/01 02:41:43;;;;;;;26.52;13.23;;;;;;;4.50;100.00;100192.13;4989525;28;20050;-50
2022/05/01 02:44:29;;;;;;;28.65;16.00;;;;;;;4.46;100.00;100192.97;5003180;28;20053;-49
2022/05/01 02:47:13;;;;;;;26.67;15.10;;;;;;;4.53;100.00;100191.28;5004453;28;20550;-50
2022/05/01 02:49:58;;;;;;;26.20;13.90;;;;;;;4.55;100.00;100192.13;5005688;28;20053;-50
2022/05/01 02:52:42;;;;;;;31.58;15.02;;;;;;;4.65;100.00;100186.16;5005409;28;20057;-50
2022/05/01 02:55:26;;;;;;;33.45;14.05;;;;;;;4.72;100.00;100184.44;4997048;28;20070;-50
2022/05/01 02:58:11;;;;;;;22.42;13.30;;;;;;;4.74;100.00;100188.75;4992657;28;20053;-50
2022/05/01 03:00:56;;;;;;;23.92;13.70;;;;;;;4.67;100.00;100174.91;5004699;28;20050;-50
2022/05/01 03:03:41;;;;;;;23.75;12.23;;;;;;;4.73;100.00;100192.22;5005903;28;20050;-50
2022/05/01 03:06:25;;;;;;;25.17;13.02;;;;;;;4.72;100.00;100190.50;5006015;28;20061;-51
2022/05/01 03:09:09;;;;;;;33.60;14.63;;;;;;;4.69;100.00;100198.28;4999212;28;20049;-50
2022/05/01 03:11:54;;;;;;;35.20;16.52;;;;;;;4.63;100.00;100200.84;4989387;28;20050;-50
2022/05/01 03:14:38;;;;;;;27.73;13.95;;;;;;;4.59;100.00;100199.94;4988525;28;20508;-50
2022/05/01 03:17:22;;;;;;;28.13;12.13;;;;;;;4.44;100.00;100202.44;4988385;28;20050;-50
2022/05/01 03:23:10;;;;;;;18.95;10.82;;;;;;;4.49;100.00;100202.50;5005193;28;20053;-50
2022/05/01 03:25:54;;;;;;;19.35;10.50;;;;;;;4.43;100.00;100204.19;5001359;28;20064;-50
2022/05/01 03:28:39;;;;;;;21.23;10.73;;;;;;;4.52;100.00;100197.28;4988702;28;20039;-50
2022/05/01 03:31:24;;;;;;;18.00;8.57;;;;;;;4.48;100.00;100198.16;4988981;28;20053;-50
2022/05/01 03:34:08;;;;;;;17.38;9.02;;;;;;;4.57;100.00;100199.06;4989260;28;20080;-50
2022/05/01 03:36:54;;;;;;;19.42;9.85;;;;;;;4.58;100.00;100199.94;4990143;28;20054;-50
2022/05/01 03:39:38;;;;;;;23.05;11.02;;;;;;;4.62;100.00;100199.97;4998261;28;20609;-50
2022/05/01 03:42:22;;;;;;;23.00;11.50;;;;;;;4.57;100.00;100208.56;5007656;28;20056;-50
2022/05/01 03:45:08;;;;;;;25.58;11.93;;;;;;;4.55;100.00;100206.00;5008850;28;20057;-50
2022/05/01 03:47:53;;;;;;;20.88;10.82;;;;;;;4.63;100.00;100203.44;5008274;28;20104;-50
2022/05/01 03:50:38;;;;;;;18.02;10.07;;;;;;;4.73;100.00;100200.00;4992283;28;20066;-50
2022/05/01 03:53:23;;;;;;;25.83;12.55;;;;;;;4.66;100.00;100206.91;5004448;28;20678;-50
2022/05/01 03:56:08;;;;;;;23.05;12.05;;;;;;;4.88;100.00;100210.47;4992489;28;20042;-50
2022/05/01 03:58:52;;;;;;;22.00;11.68;;;;;;;5.11;100.00;100214.91;4991989;28;20186;-50
2022/05/01 04:01:37;;;;;;;19.35;10.68;;;;;;;5.24;100.00;100214.06;4992139;28;20519;-50
2022/05/01 04:04:22;;;;;;;24.50;12.38;;;;;;;5.30;100.00;100218.44;4991950;28;20447;-50
2022/05/01 04:07:06;;;;;;;29.50;13.27;;;;;;;5.21;100.00;100214.06;5007461;28;20053;-51
2022/05/01 04:09:50;;;;;;;24.80;12.65;;;;;;;5.34;100.00;100212.38;5007236;28;20046;-50
2022/05/01 04:12:40;;;;;;;26.48;13.38;;;;;;;5.35;100.00;100217.56;5007973;28;20053;-50
2022/05/01 04:15:25;;;;;;;29.95;14.85;;;;;;;5.35;100.00;100222.75;5008898;28;20049;-50
2022/05/01 04:18:10;;;;;;;28.13;16.13;;;;;;;5.52;100.00;100203.72;5005376;28;20058;-51
2022/05/01 04:20:55;;;;;;;25.55;14.48;;;;;;;5.67;100.00;100206.38;5007190;28;20045;-50
2022/05/01 04:23:40;;;;;;;24.92;14.48;;;;;;;5.81;100.00;100216.75;5008754;28;20063;-50
2022/05/01 04:26:24;;;;;;;29.38;15.50;;;;;;;5.92;100.00;100215.06;4998548;28;20058;-49
2022/05/01 04:32:16;;;;;;;28.58;15.10;;;;;;;6.24;100.00;100216.78;5008053;28;20053;-50
2022/05/01 04:35:01;;;;;;;30.15;15.00;;;;;;;6.51;100.00;100203.75;4999119;28;20052;-50
2022/05/01 04:37:45;;;;;;;25.13;14.18;;;;;;;6.75;100.00;100214.97;5008369;28;20134;-50
2022/05/01 04:40:35;;;;;;;23.25;14.40;;;;;;;6.98;100.00;100204.47;5005754;28;20441;-51
2022/05/01 04:43:22;;;;;;;24.67;14.73;;;;;;;7.27;98.47;100212.16;4993065;28;20046;-51
2022/05/01 04:46:07;;;;;;;28.15;14.98;;;;;;;7.22;95.88;100209.56;4991577;28;20563;-50
2022/05/01 04:48:52;;;;;;;23.23;12.57;;;;;;;7.61;94.61;100207.63;5008372;28;20057;-50
2022/05/01 04:51:36;;;;;;;22.13;12.98;;;;;;;7.85;92.55;100209.16;5008493;28;20069;-51
2022/05/01 04:54:21;;;;;;;18.38;11.30;;;;;;;8.19;91.61;100214.97;5007017;28;20042;-51
2022/05/01 04:57:06;;;;;;;20.98;11.52;;;;;;;8.42;88.01;100214.81;5008057;28;20050;-50
2022/05/01 04:59:50;;;;;;;22.70;10.90;;;;;;;8.79;84.69;100209.19;5010221;28;20061;-51
2022/05/01 05:02:37;;;;;;;18.77;10.50;;;;;;;9.41;84.68;100205.78;5007871;28;20050;-52
2022/05/01 05:05:21;;;;;;;20.73;10.52;;;;;;;9.88;82.59;100212.06;5008525;28;20065;-51
2022/05/01 05:11:10;;;;;;;19.23;10.25;;;;;;;10.47;78.39;100200.63;5008194;28;20053;-50
2022/05/01 05:13:57;;;;;;;17.25;10.77;;;;;;;10.23;75.47;100214.09;4996953;28;20046;-51
2022/05/01 05:16:41;;;;;;;20.42;9.38;;;;;;;10.71;76.17;100212.38;4990971;28;20053;-51
2022/05/01 05:19:26;;;;;;;16.83;10.45;;;;;;;10.98;75.52;100208.38;4991875;28;20817;-51
2022/05/01 05:22:11;;;;;;;18.85;8.85;;;;;;;11.23;69.75;100206.06;5003172;28;20056;-52
2022/05/01 05:24:56;;;;;;;15.82;8.75;;;;;;;11.51;68.56;100204.63;5007279;28;20074;-51
2022/05/01 05:27:40;;;;;;;15.65;8.38;;;;;;;11.98;66.65;100207.91;4999570;28;20411;-51
2022/05/01 05:30:26;;;;;;;17.48;9.30;;;;;;;11.89;62.92;100215.13;4991767;28;20050;-51
2022/05/01 05:33:10;;;;;;;14.32;8.57;;;;;;;12.15;60.30;100208.34;5008059;28;20064;-51
2022/05/01 05:35:55;;;;;;;14.48;8.43;;;;;;;13.04;59.17;100216.47;5005392;28;20202;-51
2022/05/01 05:38:39;;;;;;;12.52;8.55;;;;;;;13.69;57.51;100204.91;4998367;28;20477;-52
2022/05/01 05:41:24;;;;;;;12.32;8.43;;;;;;;14.20;57.24;100205.00;4991969;28;20046;-52
2022/05/01 05:44:09;;;;;;;18.02;10.55;;;;;;;14.05;54.11;100215.19;4991734;28;20054;-51
2022/05/01 05:46:53;;;;;;;35.28;19.92;;;;;;;14.69;55.98;100215.66;4995943;28;20050;-51
2022/05/01 05:49:37;;;;;;;45.80;31.42;;;;;;;14.35;55.95;100218.56;4992133;28;20516;-51
2022/05/01 05:52:22;;;;;;;43.50;29.90;;;;;;;14.05;55.11;100220.44;4997621;28;20065;-52
2022/05/01 05:55:07;;;;;;;46.38;30.33;;;;;;;13.71;56.82;100213.59;5002508;28;20047;-51
2022/05/01 05:57:52;;;;;;;46.38;30.40;;;;;;;14.25;56.41;100218.00;4992141;28;20060;-51
2022/05/01 06:00:36;;;;;;;48.83;32.90;;;;;;;14.32;55.92;100211.59;4991765;28;20054;-51
2022/05/01 06:03:21;;;;;;;45.22;32.58;;;;;;;14.94;55.27;100210.34;4992075;28;20058;-52
2022/05/01 06:06:06;;;;;;;46.10;32.00;;;;;;;15.32;54.71;100213.31;4993654;28;20080;-52
2022/05/01 06:08:50;;;;;;;37.55;26.63;;;;;;;15.46;52.98;100207.50;5011333;28;20053;-51
2022/05/01 06:11:35;;;;;;;28.08;18.73;;;;;;;15.73;51.06;100214.41;5010200;28;20049;-52
2022/05/01 06:14:20;;;;;;;23.23;15.65;;;;;;;16.04;50.71;100214.00;5011762;28;20580;-51
2022/05/01 06:17:04;;;;;;;21.40;12.68;;;;;;;15.17;52.48;100212.13;4997783;28;20069;-52
2022/05/01 06:19:49;;;;;;;18.90;12.50;;;;;;;15.94;51.50;100211.81;4995283;28;20427;-52
2022/05/01 06:22:33;;;;;;;19.40;11.93;;;;;;;16.18;47.54;100220.50;5010002;28;20057;-52
2022/05/01 06:25:18;;;;;;;18.70;12.52;;;;;;;17.01;48.46;100205.44;5010212;28;20046;-52
2022/05/01 06:28:03;;;;;;;20.27;12.55;;;;;;;17.42;47.29;100213.25;5003156;28;20219;-52
2022/05/01 06:30:49;;;;;;;19.25;13.75;;;;;;;17.59;46.45;100212.47;4993074;28;20826;-52
2022/05/01 06:33:35;;;;;;;20.05;12.00;;;;;;;17.96;46.13;100216.00;4993765;28;20418;-53
2022/05/01 06:36:20;;;;;;;14.85;10.18;;;;;;;18.45;44.35;100214.41;4993077;28;20050;-52
2022/05/01 06:39:04;;;;;;;18.92;11.25;;;;;;;17.47;44.87;100219.19;4993167;28;20061;-52
2022/05/01 06:41:49;;;;;;;17.00;11.13;;;;;;;18.25;43.63;100219.84;5010260;28;20034;-52
2022/05/01 06:44:34;;;;;;;15.10;10.43;;;;;;;18.22;44.91;100215.56;5009549;28;20049;-52
2022/05/01 06:47:19;;;;;;;14.98;9.77;;;;;;;18.67;43.61;100224.75;5010324;28;20060;-52
2022/05/01 06:50:03;;;;;;;12.95;9.30;;;;;;;18.89;43.07;100221.03;4998286;28;20046;-52
2022/05/01 06:52:47;;;;;;;14.88;10.20;;;;;;;19.31;42.12;100228.47;5008423;28;20070;-53
2022/05/01 06:55:32;;;;;;;12.20;8.88;;;;;;;20.01;41.32;100229.00;5009778;28;20054;-52
2022/05/01 06:58:17;;;;;;;11.98;8.65;;;;;;;20.33;39.58;100226.28;5004291;28;20038;-53
2022/05/01 07:01:01;;;;;;;11.90;7.93;;;;;;;20.38;38.40;100226.88;5005852;28;20059;-52
2022/05/01 07:03:47;;;;;;;17.20;9.27;;;;;;;20.54;40.02;100226.88;5010575;28;20344;-52
2022/05/01 07:06:32;;;;;;;15.30;10.32;;;;;;;19.91;40.86;100233.13;5007724;28;20093;-52
2022/05/01 07:09:17;;;;;;;17.83;10.18;;;;;;;20.45;39.25;100233.53;5006798;28;20374;-52
2022/05/01 07:12:01;;;;;;;13.30;8.25;;;;;;;20.81;38.65;100232.31;5007526;28;20050;-51
2022/05/01 07:14:46;;;;;;;11.95;7.32;;;;;;;20.98;37.70;100234.78;5000788;28;20045;-53
2022/05/01 07:17:30;;;;;;;11.80;8.20;;;;;;;21.08;37.00;100229.75;5002701;28;20495;-52
2022/05/01 07:20:15;;;;;;;13.40;9.02;;;;;;;20.82;37.66;100226.03;5009238;28;20049;-53
2022/05/01 07:23:00;;;;;;;12.23;7.53;;;;;;;21.00;36.68;100234.72;4993706;28;20157;-51
2022/05/01 07:25:45;;;;;;;14.82;6.75;;;;;;;20.99;37.46;100225.00;5007320;28;20118;-52
2022/05/01 07:28:29;;;;;;;12.57;7.75;;;;;;;20.87;37.20;100223.09;5004780;28;20128;-52
2022/05/01 07:31:13;;;;;;;16.25;8.13;;;;;;;20.34;38.39;100227.13;5008640;28;20042;-52
2022/05/01 07:33:58;;;;;;;9.52;7.20;;;;;;;20.77;35.96;100223.66;4996964;28;20049;-53
2022/05/01 07:36:43;;;;;;;10.43;7.00;;;;;;;20.41;37.31;100216.06;5011266;28;20054;-53
2022/05/01 07:39:27;;;;;;;8.20;6.45;;;;;;;21.87;35.85;100215.88;5005042;28;20145;-52
2022/05/01 07:42:12;;;;;;;9.57;5.75;;;;;;;22.64;35.38;100206.25;5003166;28;20154;-52
2022/05/01 07:44:56;;;;;;;10.05;5.72;;;;;;;22.22;35.37;100212.69;4997410;28;20042;-53
2022/05/01 07:47:40;;;;;;;8.60;5.13;;;;;;;22.20;34.35;100211.97;4992137;28;20548;-52
2022/05/01 07:50:25;;;;;;;8.48;5.00;;;;;;;22.59;34.42;100211.06;4994168;28;20526;-52
2022/05/01 07:53:09;;;;;;;8.32;5.35;;;;;;;22.56;33.95;100210.44;5005306;28;20049;-53
2022/05/01 07:55:56;;;;;;;7.70;4.32;;;;;;;22.09;33.64;100207.28;4992549;28;20072;-53
2022/05/01 07:58:41;;;;;;;7.35;5.22;;;;;;;20.13;33.53;100208.84;4992308;28;20050;-52
2022/05/01 08:01:26;;;;;;;9.20;4.13;;;;;;;21.07;33.54;100208.56;5000620;28;20049;-52
2022/05/01 08:04:33;;;;;;;7.60;4.28;;;;;;;21.66;33.09;100204.78;5003429;28;20054;-53
2022/05/01 08:07:16;;;;;;;9.20;5.28;;;;;;;22.23;31.48;100201.09;5001729;28;20076;-52
2022/05/01 08:10:01;;;;;;;7.53;4.78;;;;;;;22.51;31.71;100207.19;4996716;28;20054;-51
2022/05/01 08:12:47;;;;;;;6.65;5.47;;;;;;;22.63;31.46;100198.34;5009310;28;20045;-53
2022/05/01 08:15:32;;;;;;;8.60;4.95;;;;;;;22.93;31.37;100195.38;5001647;28;20054;-53
2022/05/01 08:21:19;;;;;;;7.53;4.82;;;;;;;23.17;30.96;100191.94;5005809;28;20066;-52
2022/05/01 08:24:04;;;;;;;12.38;9.70;;;;;;;22.65;29.75;100201.75;5005757;28;20041;-52
2022/05/01 08:26:49;;;;;;;16.30;10.80;;;;;;;22.51;31.57;100199.19;5009253;28;20053;-53
2022/05/01 08:29:34;;;;;;;11.25;8.63;;;;;;;22.59;30.46;100194.19;5006391;28;20050;-53
2022/05/01 08:32:19;;;;;;;12.30;9.65;;;;;;;22.84;31.21;100186.16;5008300;28;20037;-51
2022/05/01 08:35:04;;;;;;;13.90;11.05;;;;;;;22.63;31.53;100190.34;5005922;28;20046;-52
2022/05/01 08:37:49;;;;;;;15.10;12.43;;;;;;;22.79;30.65;100185.66;5007556;28;20050;-52
2022/05/01 08:40:33;;;;;;;12.77;10.27;;;;;;;22.84;29.66;100182.66;5006739;28;20064;-53
2022/05/01 08:43:19;;;;;;;16.35;12.27;;;;;;;22.68;30.28;100190.03;5007460;28;20053;-54
2022/05/01 08:46:07;;;;;;;16.85;12.73;;;;;;;21.92;31.31;100181.75;5007550;28;20057;-52
2022/05/01 08:49:04;;;;;;;13.40;8.35;;;;;;;22.01;30.65;100177.63;5004172;28;20058;-53
2022/05/01 08:51:51;;;;;;;9.48;7.55;;;;;;;21.08;31.79;100186.28;5000388;28;20710;-53
2022/05/01 08:54:36;;;;;;;9.40;6.78;;;;;;;21.39;31.39;100172.78;5002562;28;20453;-53
2022/05/01 08:57:23;;;;;;;8.43;5.88;;;;;;;22.09;32.57;100172.63;5001935;28;20133;-53
2022/05/01 09:00:08;;;;;;;9.40;7.35;;;;;;;21.45;32.29;100175.06;4999162;28;20046;-53
2022/05/01 09:02:53;;;;;;;7.18;5.20;;;;;;;21.38;31.00;100175.53;5007386;28;20523;-53
2022/05/01 09:05:39;;;;;;;8.70;5.65;;;;;;;21.10;31.72;100187.06;5005501;28;20057;-53
2022/05/01 09:08:24;;;;;;;7.68;5.15;;;;;;;22.04;31.35;100176.56;4994974;28;20095;-52
2022/05/01 09:14:12;;;;;;;9.13;5.80;;;;;;;22.14;31.00;100186.50;5000533;28;20045;-54
2022/05/01 09:17:18;;;;;;;7.22;4.43;;;;;;;21.36;29.56;100172.97;4999974;28;20378;-53
2022/05/01 09:20:10;;;;;;;7.10;4.97;;;;;;;21.76;29.96;100180.19;5008122;28;20045;-54
2022/05/01 09:22:57;;;;;;;7.13;4.82;;;;;;;22.23;29.97;100170.84;5037048;28;20110;-53
2022/05/01 09:25:42;;;;;;;6.20;4.72;;;;;;;22.54;29.55;100172.31;5001830;28;20050;-53
2022/05/01 09:28:28;;;;;;;8.02;4.45;;;;;;;22.12;29.13;100171.56;5010328;28;20137;-53
2022/05/01 09:31:12;;;;;;;7.25;4.00;;;;;;;22.39;30.24;100168.84;5011884;28;20070;-53
2022/05/01 09:34:32;;;;;;;6.50;4.03;;;;;;;22.21;28.63;100170.13;4994349;28;20050;-52
2022/05/01 09:37:19;;;;;;;5.45;3.33;;;;;;;22.39;28.42;100168.84;4994781;28;20043;-53
2022/05/01 09:40:05;;;;;;;4.65;3.35;;;;;;;22.28;27.03;100166.06;4992578;28;20050;-53
2022/05/01 09:42:49;;;;;;;10.00;3.40;;;;;;;22.36;28.08;100166.44;4991492;28;20054;-54
2022/05/01 09:45:34;;;;;;;7.45;5.05;;;;;;;21.81;27.85;100164.78;4994236;28;20485;-53
2022/05/01 09:48:20;;;;;;;6.35;4.28;;;;;;;22.08;27.89;100159.41;4994018;28;20045;-53
2022/05/01 09:51:19;;;;;;;5.70;4.00;;;;;;;22.02;31.29;100157.13;4991530;28;20049;-53
2022/05/01 09:54:07;;;;;;;6.18;4.47;;;;;;;22.18;29.21;100155.19;4993298;28;20632;-53
2022/05/01 09:56:59;;;;;;;5.22;4.13;;;;;;;22.61;28.96;100154.88;4992109;28;20079;-53
2022/05/01 09:59:46;;;;;;;7.53;3.73;;;;;;;22.79;27.99;100147.44;4993991;28;20046;-52
2022/05/01 10:02:31;;;;;;;6.90;4.65;;;;;;;21.94;28.53;100150.50;4994136;28;20313;-52
2022/05/01 10:05:16;;;;;;;8.50;4.40;;;;;;;21.91;28.11;100145.38;4998795;28;20176;-52
2022/05/01 10:08:01;;;;;;;6.18;4.75;;;;;;;21.21;28.57;100141.97;4997764;28;20050;-53
2022/05/01 10:10:47;;;;;;;8.20;4.53;;;;;;;21.93;28.48;100147.94;5009669;28;20069;-53
2022/05/01 10:13:34;;;;;;;6.15;3.80;;;;;;;22.21;28.94;100146.97;4994503;28;20054;-53
2022/05/01 10:16:18;;;;;;;6.32;4.95;;;;;;;22.44;28.71;100140.06;5007951;28;20555;-53
2022/05/01 10:19:04;;;;;;;6.78;3.38;;;;;;;22.53;27.11;100141.25;4999797;28;20053;-53
2022/05/01 10:21:50;;;;;;;6.18;4.10;;;;;;;22.02;26.55;100135.81;4998526;28;20468;-52
2022/05/01 10:24:37;;;;;;;8.05;3.65;;;;;;;22.27;27.68;100135.88;5001801;28;20068;-52
2022/05/01 10:27:24;;;;;;;5.25;3.92;;;;;;;22.34;25.97;100142.50;5004213;28;20037;-53
2022/05/01 10:33:46;;;;;;;6.75;3.63;;;;;;;22.03;28.84;100135.69;5006690;28;20055;-54
2022/05/01 10:36:50;;;;;;;6.32;3.80;;;;;;;22.24;27.68;100128.09;5004962;28;20152;-53
2022/05/01 10:39:39;;;;;;;4.57;3.58;;;;;;;23.02;27.79;100124.47;5001764;28;20057;-52
2022/05/01 10:42:42;;;;;;;6.53;3.67;;;;;;;23.26;26.20;100113.81;5005486;28;20054;-53
2022/05/01 10:45:40;;;;;;;13.50;5.60;;;;;;;23.72;26.65;100115.78;5001459;28;20042;-54
2022/05/01 10:48:43;;;;;;;6.35;4.78;;;;;;;23.39;27.45;100122.63;5003918;28;20407;-53
2022/05/01 10:51:27;;;;;;;6.78;3.95;;;;;;;23.65;25.93;100117.16;5000731;28;20144;-53
2022/05/01 10:54:15;;;;;;;6.75;5.40;;;;;;;23.48;25.98;100110.41;4999998;28;20060;-52
2022/05/01 10:57:10;;;;;;;11.40;4.10;;;;;;;23.04;26.99;100104.69;5004002;28;20058;-53
2022/05/01 11:00:08;;;;;;;5.57;3.70;;;;;;;22.91;26.64;100113.63;4997866;28;20060;-54
2022/05/01 11:02:56;;;;;;;5.38;3.22;;;;;;;22.85;26.16;100104.28;5000557;28;20042;-53
2022/05/01 11:05:45;;;;;;;6.00;4.35;;;;;;;22.95;25.09;100110.69;5027429;28;20072;-52
2022/05/01 11:08:38;;;;;;;6.32;4.20;;;;;;;23.41;24.55;100103.81;4997926;28;20069;-53
2022/05/01 11:11:23;;;;;;;8.27;3.42;;;;;;;23.56;24.38;100111.56;5000261;28;20576;-53
2022/05/01 11:14:07;;;;;;;4.63;2.92;;;;;;;23.87;24.27;100106.59;4996872;28;20046;-53
2022/05/01 11:16:52;;;;;;;6.00;4.22;;;;;;;23.84;26.00;100109.50;5025724;28;20404;-54
2022/05/01 11:19:50;;;;;;;5.70;3.33;;;;;;;23.72;24.81;100097.94;5008046;28;20346;-53
2022/05/01 11:22:35;;;;;;;5.72;3.25;;;;;;;24.14;25.43;100094.75;4999667;28;20061;-53
2022/05/01 11:25:23;;;;;;;4.90;3.10;;;;;;;23.41;24.95;100099.31;5002177;28;20145;-52
2022/05/01 11:28:07;;;;;;;3.55;3.05;;;;;;;23.48;25.85;100097.03;5004135;28;20050;-53
2022/05/01 11:30:52;;;;;;;5.93;2.83;;;;;;;23.50;25.11;100101.31;4994169;28;20034;-52
2022/05/01 11:33:36;;;;;;;8.32;4.68;;;;;;;23.37;26.11;100097.84;4996328;28;20087;-53
2022/05/01 11:36:51;;;;;;;4.40;3.50;;;;;;;23.30;25.52;100093.91;4992535;28;20084;-53
2022/05/01 11:40:24;;;;;;;5.55;3.58;;;;;;;23.55;25.43;100088.44;4992030;28;20437;-52
2022/05/01 11:43:20;;;;;;;4.53;3.33;;;;;;;23.65;26.11;100088.63;4994506;28;20724;-54
2022/05/01 11:46:13;;;;;;;5.30;3.63;;;;;;;23.57;25.85;100074.97;4991548;28;20050;-51
2022/05/01 11:49:08;;;;;;;3.75;3.08;;;;;;;23.36;25.59;100079.25;4992190;28;20958;-52
2022/05/01 11:51:56;;;;;;;5.20;3.75;;;;;;;22.92;25.68;100075.31;4992342;28;20054;-52
2022/05/01 11:54:44;;;;;;;5.78;3.95;;;;;;;22.89;25.79;100078.19;4991447;28;20049;-51
2022/05/01 12:03:37;;;;;;;5.25;3.47;;;;;;;23.27;26.35;100072.78;4990052;28;20048;-52
2022/05/01 12:06:24;;;;;;;3.83;3.22;;;;;;;23.46;26.41;100078.44;4992422;28;20047;-51
2022/05/01 12:09:09;;;;;;;4.90;3.50;;;;;;;23.57;25.72;100069.63;4992560;28;20693;-51
2022/05/01 12:11:53;;;;;;;8.30;3.92;;;;;;;22.83;26.10;100072.31;4989469;28;20519;-51
2022/05/01 12:14:44;;;;;;;6.60;3.92;;;;;;;23.63;25.59;100074.53;4992283;28;20052;-51
2022/05/01 12:17:32;;;;;;;5.72;3.83;;;;;;;23.98;25.70;100069.22;5007747;28;20050;-51
2022/05/01 12:20:17;;;;;;;6.57;3.40;;;;;;;24.13;26.00;100058.28;4991704;28;20416;-51
2022/05/01 12:23:02;;;;;;;5.28;4.35;;;;;;;24.26;26.39;100059.88;4992033;28;20057;-52
2022/05/01 12:25:50;;;;;;;7.18;3.58;;;;;;;24.54;25.48;100063.09;5001822;28;20349;-52
2022/05/01 12:28:34;;;;;;;5.60;4.10;;;;;;;24.80;24.86;100055.66;5000540;28;20719;-52
2022/05/01 12:31:19;;;;;;;5.00;2.90;;;;;;;25.04;25.62;100058.19;5008139;28;20134;-52
2022/05/01 12:34:04;;;;;;;4.38;3.50;;;;;;;24.96;25.63;100052.59;5004954;28;20081;-52
2022/05/01 12:36:54;;;;;;;5.90;3.47;;;;;;;24.92;25.84;100053.81;5007905;28;20054;-51
2022/05/01 12:39:39;;;;;;;6.80;3.65;;;;;;;25.03;25.34;100051.13;5003012;28;20076;-51
2022/05/01 12:45:37;;;;;;;6.22;3.40;;;;;;;24.95;25.30;100042.84;5008134;28;20086;-52
2022/05/01 12:48:22;;;;;;;6.72;2.97;;;;;;;25.25;25.55;100044.91;5007676;28;20058;-51
2022/05/01 12:51:07;;;;;;;4.40;3.22;;;;;;;25.28;25.11;100035.72;5008642;28;20046;-51
2022/05/01 12:54:16;;;;;;;4.85;3.00;;;;;;;25.14;24.08;100036.88;5007988;28;20045;-52
2022/05/01 12:57:01;;;;;;;7.90;6.30;;;;;;;25.03;25.24;100026.16;5003491;28;20174;-51
2022/05/01 12:59:54;;;;;;;3.90;3.03;;;;;;;24.71;24.91;100029.63;5006543;28;20049;-53
2022/05/01 13:02:40;;;;;;;4.22;3.13;;;;;;;24.90;25.82;100027.16;5008662;28;20070;-52
2022/05/01 13:05:27;;;;;;;4.30;3.08;;;;;;;25.03;24.70;100023.50;5008003;28;20582;-51
2022/05/01 13:08:16;;;;;;;4.13;3.17;;;;;;;25.18;25.24;100023.09;5005782;28;20107;-52
2022/05/01 13:11:30;;;;;;;4.38;3.47;;;;;;;25.12;24.66;100020.06;5003302;28;20053;-51
2022/05/01 13:14:30;;;;;;;5.70;2.85;;;;;;;25.08;24.52;100013.22;5000440;28;20613;-51
2022/05/01 13:17:16;;;;;;;6.57;2.83;;;;;;;25.11;25.23;100015.66;5009123;28;21068;-52
2022/05/01 13:20:01;;;;;;;5.80;3.33;;;;;;;24.89;25.18;100004.03;5008404;28;20432;-51